Milford, Texas
Current Conditions -  °F | °C
As of 10:15 AM on Wednesday 26 Nov 2014 (Local Time) from KINJ Reporting Station
Clear Clear  
Wind Chill: 57°   Ceiling: Unl
Heat Index: 57°   Visibility: 10mi
Dew Point: 28°   Wind: 15mph
Humidity: 33%   Direction: 280°W
Pressure: 30.17"   Gusts: NA
Location:  32.12°N, 96.95°W
Report Text: KINJ 261615Z AUTO 28013KT 10SM CLR 14/M02 A3017 RMK AO2 T01401021
Loading
Personal Weather Stations






























Interactive Weather Map New forecast layout! Learn more

10-Day Weather Forecast

Advertisements
Track Severe Weather on mobile